createdAt,value
2023-10-15T00:00:45.345Z,88.20
2023-10-15T00:04:46.854Z,84.69
2023-10-15T00:08:48.564Z,84.46
2023-10-15T00:12:52.563Z,86.92
2023-10-15T00:16:54.163Z,84.84
2023-10-15T00:20:55.728Z,86.53
2023-10-15T00:24:57.207Z,84.90
2023-10-15T00:28:58.931Z,86.70
2023-10-15T00:33:08.900Z,84.52
2023-10-15T00:37:10.634Z,83.98
2023-10-15T00:41:15.521Z,87.17
2023-10-15T00:45:19.205Z,84.56
2023-10-15T00:49:26.014Z,85.53
2023-10-15T00:53:29.593Z,88.20
2023-10-15T00:57:43.009Z,86.46
2023-10-15T01:02:04.618Z,88.17
2023-10-15T01:06:06.879Z,86.22
2023-10-15T01:10:09.491Z,86.37
2023-10-15T01:14:12.145Z,87.76
2023-10-15T01:18:13.988Z,87.51
2023-10-15T01:22:21.628Z,87.17
2023-10-15T01:26:26.636Z,88.20
2023-10-15T01:30:35.583Z,87.17
2023-10-15T01:34:38.829Z,88.10
2023-10-15T01:38:40.534Z,85.29
2023-10-15T01:42:43.713Z,84.75
2023-10-15T01:47:03.503Z,84.67
2023-10-15T01:51:07.857Z,84.52
2023-10-15T01:55:10.135Z,85.00
2023-10-15T01:59:12.481Z,84.02
2023-10-15T02:03:14.238Z,84.27
2023-10-15T02:07:17.939Z,86.09
2023-10-15T02:11:22.695Z,84.70
2023-10-15T02:15:24.655Z,84.21
2023-10-15T02:19:35.322Z,85.60
2023-10-15T02:23:36.785Z,84.49
2023-10-15T02:27:38.273Z,83.40
2023-10-15T02:31:45.544Z,84.60
2023-10-15T02:35:48.408Z,84.42
2023-10-15T02:39:52.735Z,85.00
2023-10-15T02:43:57.561Z,85.69
2023-10-15T02:48:11.762Z,88.45
2023-10-15T02:52:19.665Z,87.65
2023-10-15T02:56:22.691Z,89.14
2023-10-15T03:00:30.446Z,90.46
2023-10-15T03:04:35.510Z,89.63
2023-10-15T03:08:49.170Z,88.37
2023-10-15T03:12:51.957Z,87.70
2023-10-15T03:16:58.082Z,87.92
2023-10-15T03:21:15.470Z,88.80
2023-10-15T03:25:17.763Z,89.80
2023-10-15T03:29:24.583Z,88.51
2023-10-15T03:33:30.968Z,90.87
2023-10-15T03:37:33.257Z,89.55
2023-10-15T03:41:41.106Z,89.05
2023-10-15T03:45:52.696Z,87.71
2023-10-15T03:49:56.578Z,87.96
2023-10-15T03:54:07.719Z,87.22
2023-10-15T03:58:14.805Z,88.45
2023-10-15T04:02:24.406Z,88.50
2023-10-15T04:06:26.180Z,87.85
2023-10-15T04:10:34.680Z,87.35
2023-10-15T04:14:36.551Z,88.09
2023-10-15T04:18:38.621Z,86.64
2023-10-15T04:22:45.554Z,87.62
2023-10-15T04:26:49.898Z,87.42
2023-10-15T04:30:51.657Z,86.36
2023-10-15T04:34:53.335Z,86.38
2023-10-15T04:39:12.636Z,86.24
2023-10-15T04:43:14.524Z,84.22
2023-10-15T04:47:19.518Z,86.44
2023-10-15T04:51:23.427Z,86.12
2023-10-15T04:55:25.142Z,86.55
2023-10-15T04:59:26.701Z,87.61
2023-10-15T05:03:28.426Z,87.40
2023-10-15T05:07:29.995Z,87.82
2023-10-15T05:11:32.267Z,88.91
2023-10-15T05:15:34.099Z,88.81
2023-10-15T05:19:35.597Z,89.97
2023-10-15T05:23:38.932Z,89.80
2023-10-15T05:27:40.444Z,91.33
2023-10-15T05:31:44.766Z,89.62
2023-10-15T05:35:50.444Z,89.56
2023-10-15T05:39:51.987Z,90.74
2023-10-15T05:43:54.810Z,90.56
2023-10-15T05:47:56.440Z,90.34
2023-10-15T05:51:58.001Z,89.75
2023-10-15T05:55:59.620Z,91.13
2023-10-15T06:00:18.896Z,91.77
2023-10-15T06:04:20.765Z,91.29
2023-10-15T06:08:22.212Z,89.38
2023-10-15T06:12:24.163Z,88.07
2023-10-15T06:16:25.730Z,87.28
2023-10-15T06:20:27.269Z,88.53
2023-10-15T06:24:28.757Z,88.20
2023-10-15T06:28:30.280Z,87.36
2023-10-15T06:32:32.574Z,86.77
2023-10-15T06:36:34.628Z,86.94
2023-10-15T06:40:39.027Z,85.41
2023-10-15T06:44:40.552Z,83.76
2023-10-15T06:48:42.445Z,83.81
2023-10-15T06:52:44.326Z,82.34
2023-10-15T06:56:45.922Z,80.28
2023-10-15T07:00:47.597Z,81.36
2023-10-15T07:04:49.537Z,80.07
2023-10-15T07:08:51.745Z,79.63
2023-10-15T07:12:53.620Z,79.84
2023-10-15T07:16:55.222Z,79.50
2023-10-15T07:20:56.801Z,79.39
2023-10-15T07:24:58.291Z,78.69
2023-10-15T07:28:59.821Z,76.71
2023-10-15T07:33:01.497Z,76.60
2023-10-15T07:37:03.103Z,74.72
2023-10-15T07:41:07.090Z,72.79
2023-10-15T07:45:08.886Z,71.89
2023-10-15T07:49:13.485Z,72.49
2023-10-15T07:53:15.064Z,72.03
2023-10-15T07:57:16.615Z,70.28
2023-10-15T08:01:18.290Z,68.99
2023-10-15T08:05:22.320Z,69.04
2023-10-15T08:09:24.041Z,67.97
2023-10-15T08:13:25.851Z,66.00
2023-10-15T08:17:28.003Z,64.50
2023-10-15T08:21:29.712Z,66.60
2023-10-15T08:25:35.730Z,67.14
2023-10-15T08:29:37.324Z,69.47
2023-10-15T08:33:38.881Z,69.82
2023-10-15T08:37:44.887Z,69.97
2023-10-15T08:41:47.926Z,70.04
2023-10-15T08:45:50.136Z,67.67
2023-10-15T08:49:53.725Z,68.29
2023-10-15T08:53:58.888Z,68.63
2023-10-15T08:58:01.225Z,65.45
2023-10-15T09:02:09.666Z,67.05
2023-10-15T09:06:11.413Z,68.33
2023-10-15T09:10:18.062Z,68.26
2023-10-15T09:14:38.036Z,67.48
2023-10-15T09:18:39.822Z,66.37
2023-10-15T09:22:41.468Z,66.42
2023-10-15T09:26:44.214Z,66.75
2023-10-15T09:30:47.571Z,67.01
2023-10-15T09:34:49.605Z,68.39
2023-10-15T09:38:54.420Z,66.38
2023-10-15T09:42:56.082Z,64.05
2023-10-15T09:46:58.841Z,63.26
2023-10-15T09:51:01.094Z,66.61
2023-10-15T09:55:03.850Z,66.01
2023-10-15T09:59:05.706Z,66.09
2023-10-15T10:03:27.577Z,64.98
2023-10-15T10:07:56.955Z,64.29
2023-10-15T10:12:53.000Z,65.56
2023-10-15T10:16:54.986Z,64.31
2023-10-15T10:20:57.752Z,61.85
2023-10-15T10:24:59.531Z,61.76
2023-10-15T10:29:03.119Z,59.66
2023-10-15T10:33:05.203Z,59.82
2023-10-15T10:37:20.709Z,60.00
2023-10-15T10:41:39.332Z,60.17
2023-10-15T10:45:52.921Z,59.25
2023-10-15T10:49:57.730Z,56.53
2023-10-15T10:53:59.266Z,57.79
2023-10-15T10:58:05.149Z,57.34
2023-10-15T11:02:08.280Z,55.64
2023-10-15T11:06:10.822Z,56.19
2023-10-15T11:10:12.766Z,57.35
2023-10-15T11:14:15.721Z,58.00
2023-10-15T11:18:24.196Z,61.48
2023-10-15T11:22:27.164Z,65.61
2023-10-15T11:26:32.198Z,71.30
2023-10-15T11:30:33.811Z,76.02
2023-10-15T11:34:36.429Z,71.57
2023-10-15T11:38:38.285Z,72.53
2023-10-15T11:42:52.310Z,74.04
2023-10-15T11:46:56.127Z,76.75
2023-10-15T11:50:58.950Z,82.88
2023-10-15T11:55:02.785Z,84.02
2023-10-15T11:59:05.106Z,88.05
2023-10-15T12:03:07.230Z,88.79
2023-10-15T12:07:17.234Z,87.36
2023-10-15T12:11:19.572Z,86.40
2023-10-15T12:15:21.422Z,84.12
2023-10-15T12:19:23.021Z,82.32
2023-10-15T12:23:25.826Z,80.62
2023-10-15T12:27:29.629Z,77.19
2023-10-15T12:31:34.451Z,76.17
2023-10-15T12:35:36.110Z,74.96
2023-10-15T12:39:41.985Z,72.16
2023-10-15T12:43:44.036Z,70.97
2023-10-15T12:47:45.712Z,72.18
2023-10-15T12:51:47.725Z,68.27
2023-10-15T12:55:50.022Z,66.61
2023-10-15T12:59:51.586Z,68.54
2023-10-15T13:03:53.496Z,67.14
2023-10-15T13:07:57.747Z,66.39
2023-10-15T13:11:59.835Z,68.10
2023-10-15T13:16:02.704Z,66.85
2023-10-15T13:20:07.478Z,65.06
2023-10-15T13:24:09.274Z,63.77
2023-10-15T13:28:10.729Z,60.72
2023-10-15T13:32:15.638Z,61.54
2023-10-15T13:36:17.271Z,60.20
2023-10-15T13:40:22.532Z,60.22
2023-10-15T13:44:24.240Z,60.22
2023-10-15T13:48:25.858Z,57.00
2023-10-15T13:52:27.471Z,56.41
2023-10-15T13:56:29.150Z,58.61
2023-10-15T14:00:32.736Z,55.48
2023-10-15T14:04:35.225Z,56.45
2023-10-15T14:08:37.158Z,56.42
2023-10-15T14:12:48.239Z,55.81
2023-10-15T14:16:50.317Z,54.97
2023-10-15T14:20:51.954Z,55.11
2023-10-15T14:24:54.583Z,54.53
2023-10-15T14:28:56.095Z,54.55
2023-10-15T14:32:58.415Z,54.70
2023-10-15T14:37:01.857Z,55.34
2023-10-15T14:41:04.173Z,55.99
2023-10-15T14:45:07.572Z,55.96
2023-10-15T14:49:09.433Z,56.78
2023-10-15T14:53:11.977Z,56.66
2023-10-15T14:57:18.530Z,57.63
2023-10-15T15:01:20.088Z,58.70
2023-10-15T15:05:21.709Z,60.41
2023-10-15T15:09:24.088Z,60.66
2023-10-15T15:13:25.746Z,60.01
2023-10-15T15:17:27.857Z,60.79
2023-10-15T15:21:29.601Z,61.90
2023-10-15T15:25:32.146Z,62.26
2023-10-15T15:29:34.030Z,64.09
2023-10-15T15:33:36.635Z,63.93
2023-10-15T15:37:38.487Z,64.97
2023-10-15T15:41:40.019Z,65.21
2023-10-15T15:45:41.578Z,65.51
2023-10-15T15:49:43.472Z,68.83
2023-10-15T15:53:45.038Z,72.28
2023-10-15T15:57:46.577Z,71.09
2023-10-15T16:01:48.520Z,71.01
2023-10-15T16:05:59.637Z,69.12
2023-10-15T16:10:02.532Z,68.67
2023-10-15T16:14:04.721Z,69.75
2023-10-15T16:18:08.111Z,70.24
2023-10-15T16:22:09.855Z,70.40
2023-10-15T16:26:11.411Z,69.08
2023-10-15T16:30:13.402Z,71.81
2023-10-15T16:34:14.909Z,73.15
2023-10-15T16:38:16.410Z,72.54
2023-10-15T16:42:17.945Z,74.32
2023-10-15T16:46:19.589Z,75.10
2023-10-15T16:50:21.546Z,77.37
2023-10-15T16:54:23.189Z,76.00
2023-10-15T16:58:25.610Z,77.53
2023-10-15T17:02:29.234Z,78.03
2023-10-15T17:06:31.835Z,78.87
2023-10-15T17:10:33.317Z,79.41
2023-10-15T17:14:35.186Z,77.24
2023-10-15T17:18:36.914Z,79.76
2023-10-15T17:22:39.184Z,79.48
2023-10-15T17:26:40.681Z,80.60
2023-10-15T17:30:45.131Z,80.45
2023-10-15T17:34:46.821Z,80.60
2023-10-15T17:38:48.267Z,82.00
2023-10-15T17:42:49.908Z,81.09
2023-10-15T17:46:51.515Z,81.22
2023-10-15T17:50:57.016Z,81.85
2023-10-15T17:54:58.610Z,82.21
2023-10-15T17:59:00.488Z,80.49
2023-10-15T18:03:02.194Z,79.70
2023-10-15T18:07:03.813Z,81.83
2023-10-15T18:11:08.394Z,83.72
2023-10-15T18:15:12.940Z,84.66
2023-10-15T18:19:15.244Z,87.20
2023-10-15T18:23:16.779Z,89.95
2023-10-15T18:27:18.364Z,95.92
2023-10-15T18:31:22.502Z,98.37
2023-10-15T18:35:24.148Z,97.37
2023-10-15T18:39:25.775Z,100.00
2023-10-15T18:43:28.016Z,99.83
2023-10-15T18:47:34.823Z,99.15
2023-10-15T18:51:38.432Z,97.85
2023-10-15T18:55:40.287Z,98.92
2023-10-15T18:59:41.849Z,97.88
2023-10-15T19:03:43.619Z,97.96
2023-10-15T19:07:45.685Z,92.97
2023-10-15T19:11:48.986Z,91.26
2023-10-15T19:16:00.137Z,91.23
2023-10-15T19:20:01.796Z,84.81
2023-10-15T19:24:04.287Z,84.39
2023-10-15T19:28:05.940Z,78.35
2023-10-15T19:32:07.410Z,79.96
2023-10-15T19:36:09.075Z,74.77
2023-10-15T19:40:11.256Z,76.83
2023-10-15T19:44:12.697Z,81.37
2023-10-15T19:48:14.700Z,84.10
2023-10-15T19:52:18.013Z,85.21
2023-10-15T19:56:19.628Z,84.09
2023-10-15T20:00:21.507Z,88.58
2023-10-15T20:04:23.130Z,91.00
2023-10-15T20:08:26.492Z,90.16
2023-10-15T20:12:28.116Z,88.44
2023-10-15T20:16:30.280Z,89.31
2023-10-15T20:20:32.021Z,84.76
2023-10-15T20:24:33.593Z,87.63
2023-10-15T20:28:35.620Z,86.96
2023-10-15T20:32:54.092Z,87.33
2023-10-15T20:36:57.158Z,87.66
2023-10-15T20:40:59.078Z,84.37
2023-10-15T20:45:00.716Z,81.40
2023-10-15T20:49:05.805Z,79.06
2023-10-15T20:53:07.794Z,80.79
2023-10-15T20:57:09.780Z,81.80
2023-10-15T21:01:11.412Z,83.02
2023-10-15T21:05:13.641Z,87.07
2023-10-15T21:09:17.636Z,86.50
2023-10-15T21:13:19.253Z,80.81
2023-10-15T21:17:21.045Z,73.90
2023-10-15T21:21:22.763Z,76.00
2023-10-15T21:25:24.489Z,75.50
2023-10-15T21:29:26.031Z,73.52
2023-10-15T21:33:27.594Z,72.03
2023-10-15T21:37:30.935Z,72.03
2023-10-15T21:41:32.716Z,70.35
2023-10-15T21:45:34.338Z,66.84
2023-10-15T21:49:36.045Z,66.25
2023-10-15T21:53:37.592Z,70.64
2023-10-15T21:57:42.669Z,73.53
2023-10-15T22:01:44.463Z,75.63
2023-10-15T22:05:46.021Z,77.59
2023-10-15T22:09:48.829Z,79.09
2023-10-15T22:13:59.884Z,77.88
2023-10-15T22:18:04.462Z,68.59
2023-10-15T22:22:08.296Z,69.34
2023-10-15T22:26:10.657Z,64.94
2023-10-15T22:30:19.663Z,64.62
2023-10-15T22:34:21.483Z,64.12
2023-10-15T22:38:22.964Z,60.37
2023-10-15T22:42:24.462Z,58.69
2023-10-15T22:46:25.935Z,73.39
2023-10-15T22:50:27.443Z,81.80
2023-10-15T22:54:29.158Z,82.04
2023-10-15T22:58:30.938Z,78.32
2023-10-15T23:02:34.294Z,73.95
2023-10-15T23:06:35.929Z,71.83
2023-10-15T23:10:39.078Z,74.76
2023-10-15T23:14:41.381Z,78.50
2023-10-15T23:18:45.698Z,80.46
2023-10-15T23:22:47.331Z,79.70
2023-10-15T23:26:48.805Z,82.36
2023-10-15T23:30:52.834Z,79.55
2023-10-15T23:34:54.365Z,76.86
2023-10-15T23:38:55.834Z,77.18
2023-10-15T23:42:57.594Z,77.29
2023-10-15T23:47:13.004Z,79.18
2023-10-15T23:51:16.472Z,80.88
2023-10-15T23:55:18.292Z,79.68
2023-10-15T23:59:20.132Z,73.12
